Terminal Aerodrome Forecast
Issued by NWS

Current Version | Previous Version | Text Only | Print | Product List | Glossary On
Versions: 1 2 3 4 5 6 7 8 9 10 11 12
000
FTUS45 KABQ 211100
TAFTCC
TAF
KTCC 211124Z 2112/2212 22010KT P6SM SCT110
     FM211900 21013G23KT P6SM SCT110
     FM220200 17011KT P6SM SCT100
     FM221000 21010KT P6SM BKN100=

USA.gov is the U.S. government's official web portal to all federal, state and local government web resources and services.